Loleta, California
Current Conditions -  °F | °C
As of 6:15 AM on Thursday 27 Nov 2014 (Local Time) from KFOT Reporting Station
Clear Clear  
Wind Chill: 59°   Ceiling: Unl
Heat Index: 59°   Visibility: 10mi
Dew Point: 43°   Wind: 16mph
Humidity: 55%   Direction: 110°ESE
Pressure: 30.1"   Gusts: NA
Location:  40.64°N, 124.23°W
Report Text: KFOT 271415Z AUTO 11014KT 10SM CLR 15/06 A3010 RMK AO1
Loading
Personal Weather Stations






























Interactive Weather Map New forecast layout! Learn more

10-Day Weather Forecast

Advertisements
Track Severe Weather on mobile